Time;durP1;ratioP1;P1;durP2;ratioP2;P2;SDS_P1;SDS_P2;PMS_P1;PMS_P2;Temp;Humidity;BMP_temperature;BMP_pressure;BME280_temperature;BME280_humidity;BME280_pressure;Samples;Min_cycle;Max_cycle;Signal;HPM_P1;HPM_P2
2023/04/14 00:00:31;;;;;;;8.80;2.45;;;;;;;;;;5051788;28;20051;-79
2023/04/14 00:02:57;;;;;;;6.47;2.13;;;;;;;;;;5044308;28;20037;-79
2023/04/14 00:05:24;;;;;;;10.55;2.53;;;;;;;;;;5034982;28;20041;-79
2023/04/14 00:07:50;;;;;;;12.35;2.70;;;;;;;;;;5053761;28;20098;-79
2023/04/14 00:10:16;;;;;;;10.45;2.28;;;;;;;;;;5053009;28;20043;-79
2023/04/14 00:12:42;;;;;;;10.45;2.55;;;;;;;;;;5053577;28;20037;-79
2023/04/14 00:15:08;;;;;;;10.10;2.45;;;;;;;;;;5052562;28;20120;-79
2023/04/14 00:17:34;;;;;;;10.75;2.45;;;;;;;;;;5071180;28;20509;-79
2023/04/14 00:20:00;;;;;;;8.15;2.22;;;;;;;;;;5071559;28;20043;-79
2023/04/14 00:22:26;;;;;;;10.65;2.70;;;;;;;;;;5054721;28;20044;-79
2023/04/14 00:24:53;;;;;;;6.38;2.25;;;;;;;;;;5073159;28;20393;-79
2023/04/14 00:27:19;;;;;;;11.75;2.90;;;;;;;;;;5072742;28;20033;-79
2023/04/14 00:29:45;;;;;;;14.05;2.80;;;;;;;;;;5071761;28;20075;-79
2023/04/14 00:32:11;;;;;;;13.23;2.80;;;;;;;;;;5054920;28;20056;-79
2023/04/14 00:34:37;;;;;;;10.40;2.75;;;;;;;;;;5071562;28;20051;-79
2023/04/14 00:37:03;;;;;;;8.90;2.80;;;;;;;;;;5071610;28;20044;-79
2023/04/14 00:39:29;;;;;;;14.35;3.45;;;;;;;;;;5064818;28;20033;-79
2023/04/14 00:41:55;;;;;;;11.90;3.35;;;;;;;;;;5052798;28;20051;-79
2023/04/14 00:44:22;;;;;;;10.75;3.28;;;;;;;;;;5052125;28;20482;-79
2023/04/14 00:46:48;;;;;;;7.63;2.80;;;;;;;;;;5024844;28;20107;-79
2023/04/14 00:49:15;;;;;;;9.48;2.42;;;;;;;;;;5080271;28;20051;-79
2023/04/14 00:51:42;;;;;;;9.25;2.83;;;;;;;;;;5052204;28;20456;-78
2023/04/14 00:54:09;;;;;;;12.10;2.83;;;;;;;;;;5052820;28;20063;-79
2023/04/14 00:56:35;;;;;;;11.02;3.08;;;;;;;;;;5052280;28;20044;-79
2023/04/14 00:59:01;;;;;;;9.55;2.53;;;;;;;;;;5051013;28;20139;-79
2023/04/14 01:01:28;;;;;;;13.10;2.65;;;;;;;;;;5041789;28;20073;-79
2023/04/14 01:03:54;;;;;;;8.75;2.33;;;;;;;;;;5048030;28;20041;-79
2023/04/14 01:06:20;;;;;;;11.57;2.85;;;;;;;;;;5051838;28;20390;-79
2023/04/14 01:08:47;;;;;;;13.10;3.33;;;;;;;;;;5051151;28;20394;-79
2023/04/14 01:11:16;;;;;;;7.47;2.47;;;;;;;;;;5052384;28;20486;-79
2023/04/14 01:13:57;;;;;;;8.55;2.80;;;;;;;;;;5054011;28;20064;-79
2023/04/14 01:16:31;;;;;;;8.63;2.60;;;;;;;;;;5065397;28;20083;-79
2023/04/14 01:19:05;;;;;;;8.18;3.08;;;;;;;;;;5051980;28;20576;-79
2023/04/14 01:21:34;;;;;;;11.68;3.30;;;;;;;;;;5051739;28;20053;-79
2023/04/14 01:24:15;;;;;;;10.98;3.38;;;;;;;;;;5052036;28;20075;-79
2023/04/14 01:26:43;;;;;;;8.27;3.05;;;;;;;;;;5050695;28;20048;-79
2023/04/14 01:29:18;;;;;;;14.80;3.03;;;;;;;;;;5051739;28;20120;-79
2023/04/14 01:31:46;;;;;;;11.63;2.90;;;;;;;;;;5051898;28;20067;-79
2023/04/14 01:34:24;;;;;;;7.05;2.58;;;;;;;;;;5050611;28;20047;-79
2023/04/14 01:37:13;;;;;;;11.60;2.85;;;;;;;;;;5051876;28;20037;-79
2023/04/14 01:39:41;;;;;;;7.35;2.65;;;;;;;;;;5080964;28;20064;-79
2023/04/14 01:42:10;;;;;;;8.30;2.75;;;;;;;;;;5051950;28;20401;-79
2023/04/14 01:44:38;;;;;;;8.00;2.80;;;;;;;;;;5051457;28;20119;-79
2023/04/14 01:47:05;;;;;;;11.50;3.10;;;;;;;;;;5051882;28;20037;-79
2023/04/14 01:49:35;;;;;;;10.43;3.38;;;;;;;;;;5051439;28;20054;-79
2023/04/14 01:52:03;;;;;;;11.35;3.13;;;;;;;;;;5050325;28;20509;-79
2023/04/14 01:54:30;;;;;;;9.65;3.00;;;;;;;;;;5048520;28;20048;-79
2023/04/14 01:56:58;;;;;;;15.30;2.78;;;;;;;;;;5050270;28;20387;-79
2023/04/14 01:59:24;;;;;;;9.98;3.03;;;;;;;;;;5051381;28;20037;-79
2023/04/14 02:01:50;;;;;;;10.43;3.03;;;;;;;;;;5031174;28;20037;-79
2023/04/14 02:04:18;;;;;;;11.40;3.53;;;;;;;;;;5051250;28;20401;-79
2023/04/14 02:06:45;;;;;;;9.07;3.20;;;;;;;;;;5033479;28;20041;-79
2023/04/14 02:09:12;;;;;;;8.30;3.00;;;;;;;;;;5047055;28;20120;-79
2023/04/14 02:11:39;;;;;;;10.77;3.40;;;;;;;;;;5049968;28;20047;-79
2023/04/14 02:14:07;;;;;;;12.65;3.80;;;;;;;;;;5051658;28;20044;-79
2023/04/14 02:16:34;;;;;;;10.50;3.58;;;;;;;;;;5049971;28;20453;-79
2023/04/14 02:19:00;;;;;;;10.40;3.40;;;;;;;;;;5051279;28;20465;-79
2023/04/14 02:21:27;;;;;;;11.73;3.85;;;;;;;;;;5051308;28;20367;-79
2023/04/14 02:23:53;;;;;;;8.23;3.00;;;;;;;;;;5050417;28;20616;-78
2023/04/14 02:26:21;;;;;;;7.80;3.17;;;;;;;;;;5051215;28;20033;-78
2023/04/14 02:29:10;;;;;;;9.93;3.22;;;;;;;;;;5066821;28;20413;-79
2023/04/14 02:31:39;;;;;;;11.35;3.42;;;;;;;;;;5080643;28;20056;-79
2023/04/14 02:34:06;;;;;;;8.63;3.45;;;;;;;;;;5051793;28;20051;-79
2023/04/14 02:36:39;;;;;;;7.70;3.40;;;;;;;;;;5050902;28;20037;-79
2023/04/14 02:39:09;;;;;;;12.25;4.00;;;;;;;;;;5050095;28;20045;-79
2023/04/14 02:41:36;;;;;;;9.45;3.22;;;;;;;;;;5053071;28;20057;-79
2023/04/14 02:44:05;;;;;;;9.50;3.20;;;;;;;;;;5053715;28;20045;-79
2023/04/14 02:46:33;;;;;;;8.93;3.50;;;;;;;;;;5054638;28;20112;-79
2023/04/14 02:49:01;;;;;;;9.30;3.55;;;;;;;;;;5055066;28;20521;-79
2023/04/14 02:51:27;;;;;;;9.05;3.75;;;;;;;;;;5053483;28;20517;-79
2023/04/14 02:53:54;;;;;;;8.95;3.63;;;;;;;;;;5053413;28;20120;-79
2023/04/14 02:56:20;;;;;;;11.70;3.58;;;;;;;;;;5053409;28;20049;-79
2023/04/14 02:58:47;;;;;;;7.80;3.15;;;;;;;;;;5052924;28;20041;-79
2023/04/14 03:01:14;;;;;;;11.05;3.55;;;;;;;;;;5054208;28;20037;-78
2023/04/14 03:03:40;;;;;;;15.27;4.10;;;;;;;;;;5053442;28;20052;-79
2023/04/14 03:06:07;;;;;;;9.63;4.20;;;;;;;;;;5054789;28;20044;-79
2023/04/14 03:08:34;;;;;;;16.65;3.47;;;;;;;;;;5037045;28;20494;-79
2023/04/14 03:11:00;;;;;;;12.32;3.80;;;;;;;;;;5054034;28;20056;-79
2023/04/14 03:13:28;;;;;;;10.95;3.47;;;;;;;;;;5054322;28;20044;-79
2023/04/14 03:15:55;;;;;;;10.85;3.40;;;;;;;;;;5053863;28;20036;-79
2023/04/14 03:18:21;;;;;;;9.48;3.78;;;;;;;;;;5054470;28;20056;-79
2023/04/14 03:20:50;;;;;;;12.93;3.70;;;;;;;;;;5052525;28;20083;-79
2023/04/14 03:23:19;;;;;;;9.10;3.17;;;;;;;;;;5054094;28;20068;-79
2023/04/14 03:25:46;;;;;;;12.38;3.60;;;;;;;;;;5053647;28;20081;-79
2023/04/14 03:28:14;;;;;;;9.32;3.40;;;;;;;;;;5054166;28;20170;-79
2023/04/14 03:30:43;;;;;;;12.30;3.67;;;;;;;;;;5052408;28;20045;-79
2023/04/14 03:33:11;;;;;;;12.15;3.60;;;;;;;;;;5052839;28;20044;-79
2023/04/14 03:35:37;;;;;;;11.93;3.40;;;;;;;;;;5052743;28;20049;-79
2023/04/14 03:38:07;;;;;;;9.65;3.63;;;;;;;;;;5052434;28;20041;-79
2023/04/14 03:40:37;;;;;;;10.98;3.60;;;;;;;;;;5036175;28;20485;-79
2023/04/14 03:43:04;;;;;;;12.13;3.75;;;;;;;;;;5052458;28;20104;-79
2023/04/14 03:45:31;;;;;;;9.02;3.70;;;;;;;;;;5053927;28;20394;-79
2023/04/14 03:48:02;;;;;;;8.65;3.25;;;;;;;;;;5052057;28;20055;-79
2023/04/14 03:50:30;;;;;;;12.75;3.80;;;;;;;;;;5052295;28;20117;-79
2023/04/14 03:52:58;;;;;;;8.63;3.70;;;;;;;;;;5052922;28;20195;-79
2023/04/14 03:55:26;;;;;;;10.35;3.92;;;;;;;;;;5035589;28;20044;-79
2023/04/14 03:57:54;;;;;;;12.05;3.85;;;;;;;;;;5053218;28;20084;-79
2023/04/14 04:00:20;;;;;;;13.05;3.70;;;;;;;;;;5052273;28;20107;-79
2023/04/14 04:02:47;;;;;;;9.80;3.35;;;;;;;;;;5065435;28;20366;-79
2023/04/14 04:05:13;;;;;;;9.75;3.55;;;;;;;;;;5052102;28;20482;-79
2023/04/14 04:07:41;;;;;;;10.10;3.45;;;;;;;;;;5052442;28;20040;-79
2023/04/14 04:10:07;;;;;;;9.20;3.80;;;;;;;;;;5053177;28;20374;-79
2023/04/14 04:12:35;;;;;;;9.82;3.70;;;;;;;;;;5051687;28;20041;-79
2023/04/14 04:15:01;;;;;;;13.00;4.00;;;;;;;;;;5052981;28;20040;-79
2023/04/14 04:17:29;;;;;;;8.68;3.97;;;;;;;;;;5052922;28;20037;-79
2023/04/14 04:19:56;;;;;;;9.10;3.80;;;;;;;;;;5085083;28;20128;-79
2023/04/14 04:22:23;;;;;;;10.52;3.38;;;;;;;;;;5051946;28;20478;-79
2023/04/14 04:24:50;;;;;;;10.98;3.88;;;;;;;;;;5051304;28;20120;-79
2023/04/14 04:27:16;;;;;;;9.10;3.70;;;;;;;;;;5051624;28;20040;-79
2023/04/14 04:29:43;;;;;;;11.15;3.65;;;;;;;;;;5051384;28;20102;-79
2023/04/14 04:32:09;;;;;;;8.70;3.83;;;;;;;;;;5052778;28;20044;-79
2023/04/14 04:34:35;;;;;;;9.57;3.97;;;;;;;;;;5052767;28;20070;-79
2023/04/14 04:37:02;;;;;;;10.00;3.55;;;;;;;;;;5050984;28;20040;-79
2023/04/14 04:39:29;;;;;;;8.13;4.20;;;;;;;;;;5052617;28;20052;-79
2023/04/14 04:42:05;;;;;;;9.32;4.30;;;;;;;;;;5050770;28;20120;-79
2023/04/14 04:44:32;;;;;;;10.50;4.20;;;;;;;;;;5051572;28;20037;-79
2023/04/14 04:46:58;;;;;;;12.48;4.15;;;;;;;;;;5050821;28;20040;-79
2023/04/14 04:49:25;;;;;;;10.10;3.40;;;;;;;;;;5052531;28;20081;-79
2023/04/14 04:51:51;;;;;;;10.82;4.30;;;;;;;;;;5050723;28;20048;-79
2023/04/14 04:54:17;;;;;;;10.93;4.05;;;;;;;;;;5051239;28;20094;-79
2023/04/14 04:56:43;;;;;;;10.18;3.83;;;;;;;;;;5051080;28;20040;-79
2023/04/14 04:59:10;;;;;;;13.55;4.07;;;;;;;;;;5050976;28;20048;-79
2023/04/14 05:01:36;;;;;;;7.03;3.70;;;;;;;;;;5050151;28;20052;-79
2023/04/14 05:04:02;;;;;;;10.25;3.55;;;;;;;;;;5066899;28;20116;-79
2023/04/14 05:06:28;;;;;;;7.70;3.58;;;;;;;;;;5051190;28;20136;-79
2023/04/14 05:08:55;;;;;;;10.23;4.07;;;;;;;;;;5052047;28;20110;-79
2023/04/14 05:11:21;;;;;;;9.00;3.58;;;;;;;;;;5051412;28;20123;-79
2023/04/14 05:13:47;;;;;;;9.38;3.50;;;;;;;;;;5034377;28;20389;-79
2023/04/14 05:16:13;;;;;;;8.93;3.30;;;;;;;;;;5051007;28;20045;-79
2023/04/14 05:18:40;;;;;;;8.00;3.38;;;;;;;;;;5052084;28;20041;-79
2023/04/14 05:21:14;;;;;;;9.68;3.67;;;;;;;;;;5053649;28;20052;-79
2023/04/14 05:23:44;;;;;;;7.70;3.55;;;;;;;;;;5039270;28;20044;-79
2023/04/14 05:26:13;;;;;;;9.73;3.58;;;;;;;;;;5050320;28;20040;-79
2023/04/14 05:28:40;;;;;;;10.82;4.10;;;;;;;;;;5052151;28;20068;-79
2023/04/14 05:31:06;;;;;;;9.15;3.53;;;;;;;;;;5051648;28;20404;-79
2023/04/14 05:33:33;;;;;;;12.48;3.90;;;;;;;;;;5050547;28;20041;-80
2023/04/14 05:35:59;;;;;;;9.90;3.70;;;;;;;;;;5050442;28;20099;-80
2023/04/14 05:38:26;;;;;;;9.95;3.83;;;;;;;;;;5050596;28;20123;-80
2023/04/14 05:40:52;;;;;;;9.32;4.00;;;;;;;;;;5050443;28;20044;-80
2023/04/14 05:43:18;;;;;;;7.57;3.88;;;;;;;;;;5050647;28;20053;-80
2023/04/14 05:45:47;;;;;;;9.90;3.83;;;;;;;;;;5050739;28;20102;-80
2023/04/14 05:48:16;;;;;;;10.52;4.65;;;;;;;;;;5033831;28;20516;-80
2023/04/14 05:50:42;;;;;;;7.78;4.40;;;;;;;;;;5052030;28;20049;-80
2023/04/14 05:53:08;;;;;;;9.35;4.30;;;;;;;;;;5051059;28;20064;-80
2023/04/14 05:55:35;;;;;;;10.73;3.83;;;;;;;;;;5050731;28;20533;-80
2023/04/14 05:58:01;;;;;;;10.02;3.70;;;;;;;;;;5033238;28;20497;-81
2023/04/14 06:00:27;;;;;;;9.85;3.80;;;;;;;;;;5051256;28;20049;-81
2023/04/14 06:02:53;;;;;;;11.43;3.80;;;;;;;;;;5050286;28;20033;-81
2023/04/14 06:05:19;;;;;;;7.78;3.63;;;;;;;;;;5050929;28;20492;-81
2023/04/14 06:07:45;;;;;;;9.98;3.58;;;;;;;;;;5050271;28;20175;-81
2023/04/14 06:10:12;;;;;;;11.68;3.63;;;;;;;;;;5050356;28;20494;-81
2023/04/14 06:12:38;;;;;;;7.50;3.58;;;;;;;;;;5051352;28;20072;-81
2023/04/14 06:15:04;;;;;;;7.80;3.38;;;;;;;;;;5053573;28;20481;-81
2023/04/14 06:17:31;;;;;;;8.75;3.45;;;;;;;;;;5055491;28;20041;-81
2023/04/14 06:19:57;;;;;;;6.72;3.30;;;;;;;;;;5054206;28;20037;-81
2023/04/14 06:22:28;;;;;;;11.50;3.60;;;;;;;;;;5054138;28;20032;-81
2023/04/14 06:24:56;;;;;;;10.93;3.80;;;;;;;;;;5055484;28;20509;-81
2023/04/14 06:27:23;;;;;;;7.05;3.20;;;;;;;;;;5055370;28;20052;-81
2023/04/14 06:29:49;;;;;;;9.48;3.60;;;;;;;;;;5055272;28;20040;-82
2023/04/14 06:32:15;;;;;;;7.72;3.50;;;;;;;;;;5055061;28;20099;-82
2023/04/14 06:34:41;;;;;;;7.88;3.60;;;;;;;;;;5053845;28;20041;-82
2023/04/14 06:37:07;;;;;;;7.53;3.50;;;;;;;;;;5053899;28;20419;-82
2023/04/14 06:39:33;;;;;;;9.20;3.35;;;;;;;;;;5055003;28;20134;-81
2023/04/14 06:41:59;;;;;;;8.15;3.40;;;;;;;;;;5054582;28;20627;-82
2023/04/14 06:44:25;;;;;;;9.88;3.60;;;;;;;;;;5055062;28;20041;-82
2023/04/14 06:46:51;;;;;;;8.27;3.47;;;;;;;;;;5053709;28;20041;-82
2023/04/14 06:49:20;;;;;;;8.52;3.65;;;;;;;;;;5053269;28;20045;-82
2023/04/14 06:51:46;;;;;;;8.38;3.53;;;;;;;;;;5053678;28;20448;-82
2023/04/14 06:54:12;;;;;;;10.07;4.07;;;;;;;;;;5053325;28;20045;-82
2023/04/14 06:56:38;;;;;;;12.35;4.30;;;;;;;;;;5053572;28;20139;-82
2023/04/14 06:59:04;;;;;;;9.60;4.00;;;;;;;;;;5054339;28;20040;-82
2023/04/14 07:01:30;;;;;;;8.10;3.90;;;;;;;;;;5053127;28;20047;-80
2023/04/14 07:03:56;;;;;;;9.73;3.63;;;;;;;;;;5054670;28;20091;-81
2023/04/14 07:06:23;;;;;;;10.27;3.85;;;;;;;;;;5047595;28;20048;-80
2023/04/14 07:08:49;;;;;;;13.48;4.25;;;;;;;;;;5052065;28;20079;-81
2023/04/14 07:11:15;;;;;;;7.80;3.67;;;;;;;;;;5055218;28;20090;-80
2023/04/14 07:13:41;;;;;;;9.57;3.55;;;;;;;;;;5054905;28;20041;-81
2023/04/14 07:16:07;;;;;;;8.00;3.25;;;;;;;;;;5054205;28;20091;-81
2023/04/14 07:18:34;;;;;;;6.90;3.40;;;;;;;;;;5053650;28;20084;-81
2023/04/14 07:21:00;;;;;;;9.57;3.35;;;;;;;;;;5053206;28;20045;-81
2023/04/14 07:23:27;;;;;;;8.57;3.50;;;;;;;;;;5053221;28;20528;-81
2023/04/14 07:25:53;;;;;;;8.65;3.50;;;;;;;;;;5054099;28;20124;-81
2023/04/14 07:28:20;;;;;;;8.45;3.80;;;;;;;;;;5052938;28;20541;-81
2023/04/14 07:30:47;;;;;;;8.38;3.80;;;;;;;;;;5053302;28;20635;-81
2023/04/14 07:33:17;;;;;;;11.20;3.70;;;;;;;;;;5052683;28;20048;-82
2023/04/14 07:35:43;;;;;;;7.05;3.50;;;;;;;;;;5052989;28;20048;-82
2023/04/14 07:38:09;;;;;;;9.15;4.05;;;;;;;;;;5052552;28;20385;-82
2023/04/14 07:40:35;;;;;;;13.00;3.50;;;;;;;;;;5054248;28;20044;-82
2023/04/14 07:43:02;;;;;;;10.30;3.22;;;;;;;;;;5053649;28;20041;-82
2023/04/14 07:45:28;;;;;;;10.70;3.70;;;;;;;;;;5053641;28;20041;-82
2023/04/14 07:47:54;;;;;;;9.73;3.42;;;;;;;;;;5053971;28;20033;-82
2023/04/14 07:50:20;;;;;;;9.27;3.20;;;;;;;;;;5052612;28;20045;-82
2023/04/14 07:52:46;;;;;;;7.82;3.22;;;;;;;;;;5032351;28;20056;-82
2023/04/14 07:55:12;;;;;;;6.55;2.63;;;;;;;;;;5042388;28;20036;-82
2023/04/14 07:57:40;;;;;;;8.48;2.90;;;;;;;;;;5053749;28;20045;-82
2023/04/14 08:00:08;;;;;;;8.07;3.20;;;;;;;;;;5052603;28;20037;-82
2023/04/14 08:02:35;;;;;;;8.90;2.75;;;;;;;;;;5053155;28;20033;-82
2023/04/14 08:05:01;;;;;;;9.93;2.60;;;;;;;;;;5052055;28;20516;-82
2023/04/14 08:07:27;;;;;;;9.23;2.53;;;;;;;;;;5051948;28;20041;-82
2023/04/14 08:09:54;;;;;;;9.52;2.80;;;;;;;;;;5052152;28;20049;-82
2023/04/14 08:12:20;;;;;;;6.90;2.88;;;;;;;;;;5052083;28;20053;-82
2023/04/14 08:14:46;;;;;;;7.63;2.58;;;;;;;;;;5053450;28;20052;-82
2023/04/14 08:17:13;;;;;;;8.05;2.30;;;;;;;;;;5051662;28;20044;-82
2023/04/14 08:19:39;;;;;;;10.52;2.35;;;;;;;;;;5053392;28;20035;-82
2023/04/14 08:22:05;;;;;;;8.93;2.80;;;;;;;;;;5052246;28;20044;-82
2023/04/14 08:24:31;;;;;;;8.00;2.55;;;;;;;;;;5052320;28;20124;-82
2023/04/14 08:26:57;;;;;;;13.27;6.72;;;;;;;;;;5053905;28;20486;-82
2023/04/14 08:29:25;;;;;;;8.85;2.90;;;;;;;;;;5052077;28;20449;-82
2023/04/14 08:31:51;;;;;;;8.68;3.05;;;;;;;;;;5051709;28;20079;-82
2023/04/14 08:34:17;;;;;;;7.82;2.70;;;;;;;;;;5052631;28;20040;-82
2023/04/14 08:36:43;;;;;;;8.00;2.58;;;;;;;;;;5051338;28;20037;-82
2023/04/14 08:39:09;;;;;;;8.52;2.78;;;;;;;;;;5051525;28;20045;-82
2023/04/14 08:41:37;;;;;;;8.65;2.75;;;;;;;;;;5053000;28;20045;-83
2023/04/14 08:44:03;;;;;;;8.02;2.38;;;;;;;;;;5052072;28;20513;-82
2023/04/14 08:46:30;;;;;;;9.82;2.45;;;;;;;;;;5051272;28;20041;-82
2023/04/14 08:48:58;;;;;;;8.32;2.75;;;;;;;;;;5052619;28;20110;-82
2023/04/14 08:51:33;;;;;;;7.60;2.40;;;;;;;;;;5052741;28;20179;-82
2023/04/14 08:54:00;;;;;;;9.07;2.70;;;;;;;;;;5051550;28;20092;-83
2023/04/14 08:56:31;;;;;;;11.57;2.58;;;;;;;;;;5051642;28;20398;-82
2023/04/14 08:58:58;;;;;;;6.97;1.88;;;;;;;;;;5051494;28;20043;-82
2023/04/14 09:01:26;;;;;;;5.65;2.00;;;;;;;;;;5050313;28;20075;-82
2023/04/14 09:03:52;;;;;;;9.55;2.33;;;;;;;;;;5052556;28;20048;-82
2023/04/14 09:06:20;;;;;;;8.13;1.77;;;;;;;;;;5050928;28;20518;-82
2023/04/14 09:08:46;;;;;;;8.48;2.30;;;;;;;;;;5051420;28;20170;-82
2023/04/14 09:11:13;;;;;;;6.78;2.00;;;;;;;;;;5034592;28;20053;-82
2023/04/14 09:13:40;;;;;;;9.40;2.15;;;;;;;;;;5052132;28;20073;-82
2023/04/14 09:16:07;;;;;;;5.53;1.80;;;;;;;;;;5050897;28;20033;-82
2023/04/14 09:18:33;;;;;;;5.22;1.55;;;;;;;;;;5051881;28;20363;-82
2023/04/14 09:21:00;;;;;;;6.47;1.95;;;;;;;;;;5051287;28;20135;-82
2023/04/14 09:23:26;;;;;;;5.85;1.80;;;;;;;;;;5050987;28;20044;-82
2023/04/14 09:25:52;;;;;;;4.95;1.48;;;;;;;;;;5050867;28;20033;-82
2023/04/14 09:28:18;;;;;;;4.80;1.50;;;;;;;;;;5050620;28;20045;-82
2023/04/14 09:30:45;;;;;;;6.40;1.80;;;;;;;;;;5034173;28;20049;-83
2023/04/14 09:33:18;;;;;;;8.55;1.90;;;;;;;;;;5050938;28;20041;-83
2023/04/14 09:35:48;;;;;;;9.85;2.63;;;;;;;;;;5050999;28;20138;-83
2023/04/14 09:38:15;;;;;;;4.95;1.65;;;;;;;;;;5050767;28;20044;-83
2023/04/14 09:40:46;;;;;;;8.07;2.10;;;;;;;;;;5050552;28;20132;-82
2023/04/14 09:43:25;;;;;;;6.63;1.90;;;;;;;;;;5050892;28;20133;-83
2023/04/14 09:45:52;;;;;;;5.95;2.05;;;;;;;;;;5052010;28;20040;-83
2023/04/14 09:48:19;;;;;;;8.55;2.40;;;;;;;;;;5051300;28;20063;-82
2023/04/14 09:50:58;;;;;;;6.32;2.30;;;;;;;;;;5055596;28;20048;-82
2023/04/14 09:53:28;;;;;;;5.85;2.10;;;;;;;;;;5055709;28;20060;-82
2023/04/14 09:55:55;;;;;;;7.28;2.13;;;;;;;;;;5054568;28;20124;-82
2023/04/14 09:58:21;;;;;;;7.07;2.33;;;;;;;;;;5054846;28;20087;-81
2023/04/14 10:00:49;;;;;;;7.57;1.85;;;;;;;;;;5055360;28;20033;-82
2023/04/14 10:03:15;;;;;;;7.80;1.80;;;;;;;;;;5054721;28;20533;-81
2023/04/14 10:05:45;;;;;;;7.35;2.05;;;;;;;;;;5055506;28;20457;-82
2023/04/14 10:08:11;;;;;;;5.90;1.98;;;;;;;;;;5054620;28;20390;-82
2023/04/14 10:10:37;;;;;;;6.80;2.20;;;;;;;;;;5087644;28;20138;-82
2023/04/14 10:13:03;;;;;;;6.80;1.77;;;;;;;;;;5037683;28;20044;-82
2023/04/14 10:15:30;;;;;;;7.22;2.00;;;;;;;;;;5055365;28;20059;-83
2023/04/14 10:17:56;;;;;;;5.88;2.20;;;;;;;;;;5055324;28;20043;-83
2023/04/14 10:20:22;;;;;;;7.47;1.75;;;;;;;;;;5055389;28;20123;-82
2023/04/14 10:22:49;;;;;;;7.88;2.05;;;;;;;;;;5055069;28;20045;-82
2023/04/14 10:25:17;;;;;;;5.85;1.90;;;;;;;;;;5054256;28;20486;-83
2023/04/14 10:27:44;;;;;;;6.45;1.90;;;;;;;;;;5054944;28;20057;-83
2023/04/14 10:30:10;;;;;;;6.22;1.90;;;;;;;;;;5055312;28;20045;-83
2023/04/14 10:32:37;;;;;;;6.03;2.00;;;;;;;;;;5037200;28;20037;-83
2023/04/14 10:35:08;;;;;;;5.45;1.90;;;;;;;;;;5055250;28;20555;-82
2023/04/14 10:37:35;;;;;;;6.60;2.35;;;;;;;;;;5054722;28;20425;-82
2023/04/14 10:40:05;;;;;;;5.85;1.80;;;;;;;;;;5055233;28;20040;-82
2023/04/14 10:42:51;;;;;;;5.55;1.73;;;;;;;;;;5069889;28;20048;-82
2023/04/14 10:45:17;;;;;;;3.65;1.58;;;;;;;;;;5054968;28;20055;-82
2023/04/14 10:47:44;;;;;;;5.22;1.80;;;;;;;;;;5070042;28;20079;-82
2023/04/14 10:50:12;;;;;;;3.92;1.80;;;;;;;;;;5054954;28;20040;-82
2023/04/14 10:52:38;;;;;;;5.00;1.65;;;;;;;;;;5053100;28;20132;-82
2023/04/14 10:55:08;;;;;;;4.93;2.00;;;;;;;;;;5053636;28;20059;-82
2023/04/14 10:57:45;;;;;;;5.85;2.50;;;;;;;;;;5036362;28;20040;-81
2023/04/14 11:00:23;;;;;;;5.68;2.03;;;;;;;;;;5053744;28;20076;-81
2023/04/14 11:03:02;;;;;;;7.72;2.30;;;;;;;;;;5054459;28;20397;-81
2023/04/14 11:05:28;;;;;;;5.93;2.00;;;;;;;;;;5053749;28;20393;-81
2023/04/14 11:07:56;;;;;;;8.48;1.77;;;;;;;;;;5053432;28;20485;-81
2023/04/14 11:10:25;;;;;;;7.18;2.13;;;;;;;;;;5054466;28;20397;-81
2023/04/14 11:12:56;;;;;;;10.48;1.90;;;;;;;;;;5054080;28;20519;-81
2023/04/14 11:15:22;;;;;;;3.88;1.50;;;;;;;;;;5053074;28;20080;-82
2023/04/14 11:17:48;;;;;;;4.50;1.90;;;;;;;;;;5054170;28;20128;-81
2023/04/14 11:20:15;;;;;;;5.50;1.77;;;;;;;;;;5054240;28;20528;-81
2023/04/14 11:22:44;;;;;;;6.65;2.22;;;;;;;;;;5052922;28;20120;-81
2023/04/14 11:25:11;;;;;;;8.27;1.80;;;;;;;;;;5054276;28;20045;-81
2023/04/14 11:27:38;;;;;;;5.53;1.77;;;;;;;;;;5052813;28;20123;-82
2023/04/14 11:30:05;;;;;;;6.05;1.80;;;;;;;;;;5052798;28;20052;-81
2023/04/14 11:32:44;;;;;;;8.55;2.17;;;;;;;;;;5054232;28;20379;-82
2023/04/14 11:35:10;;;;;;;5.18;1.67;;;;;;;;;;5053093;28;20531;-81
2023/04/14 11:37:36;;;;;;;5.78;1.70;;;;;;;;;;5053678;28;20037;-81
2023/04/14 11:40:04;;;;;;;5.40;1.92;;;;;;;;;;5053900;28;20112;-81
2023/04/14 11:42:31;;;;;;;7.60;2.00;;;;;;;;;;5054019;28;20529;-81
2023/04/14 11:44:57;;;;;;;3.95;1.60;;;;;;;;;;5052527;28;20045;-81
2023/04/14 11:47:23;;;;;;;6.50;1.90;;;;;;;;;;5053773;28;20093;-80
2023/04/14 11:49:50;;;;;;;7.30;2.15;;;;;;;;;;5053450;28;20080;-80
2023/04/14 11:52:16;;;;;;;7.90;2.17;;;;;;;;;;5052121;28;20068;-80
2023/04/14 11:54:42;;;;;;;7.45;1.83;;;;;;;;;;5052154;28;20048;-81
2023/04/14 11:57:09;;;;;;;8.40;2.08;;;;;;;;;;5053463;28;20497;-81
2023/04/14 11:59:42;;;;;;;11.15;2.10;;;;;;;;;;5052335;28;20126;-81
2023/04/14 12:02:15;;;;;;;7.50;2.20;;;;;;;;;;5052920;28;20063;-80
2023/04/14 12:04:41;;;;;;;6.63;2.00;;;;;;;;;;5052316;28;20041;-81
2023/04/14 12:07:12;;;;;;;5.93;1.80;;;;;;;;;;5053395;28;20040;-80
2023/04/14 12:09:40;;;;;;;4.85;1.80;;;;;;;;;;5053531;28;20041;-80
2023/04/14 12:12:13;;;;;;;5.47;1.88;;;;;;;;;;5053134;28;20102;-81
2023/04/14 12:14:40;;;;;;;4.22;2.00;;;;;;;;;;5051861;28;20061;-81
2023/04/14 12:17:09;;;;;;;4.88;2.00;;;;;;;;;;5053228;28;20111;-81
2023/04/14 12:19:36;;;;;;;7.68;2.00;;;;;;;;;;5051860;28;20051;-81
2023/04/14 12:22:06;;;;;;;4.43;1.90;;;;;;;;;;5051648;28;20039;-81
2023/04/14 12:24:33;;;;;;;6.03;2.13;;;;;;;;;;5052083;28;20073;-81
2023/04/14 12:26:59;;;;;;;5.28;2.38;;;;;;;;;;5051473;28;20048;-81
2023/04/14 12:29:25;;;;;;;6.43;2.00;;;;;;;;;;5052101;28;20465;-80
2023/04/14 12:31:53;;;;;;;6.55;2.08;;;;;;;;;;5034849;28;20062;-81
2023/04/14 12:34:24;;;;;;;4.75;1.80;;;;;;;;;;5053004;28;20040;-81
2023/04/14 12:36:51;;;;;;;7.65;2.28;;;;;;;;;;5052468;28;20098;-80
2023/04/14 12:39:17;;;;;;;6.10;1.90;;;;;;;;;;5052027;28;20041;-81
2023/04/14 12:41:43;;;;;;;6.63;1.92;;;;;;;;;;5052768;28;20059;-81
2023/04/14 12:44:17;;;;;;;4.15;1.80;;;;;;;;;;5053170;28;20045;-81
2023/04/14 12:46:48;;;;;;;5.55;2.20;;;;;;;;;;5051911;28;20067;-81
2023/04/14 12:49:32;;;;;;;4.78;1.63;;;;;;;;;;5071551;28;20041;-80
2023/04/14 12:51:59;;;;;;;6.57;2.03;;;;;;;;;;5050945;28;20405;-81
2023/04/14 12:54:25;;;;;;;5.55;1.95;;;;;;;;;;5051499;28;20060;-81
2023/04/14 12:56:52;;;;;;;7.22;2.45;;;;;;;;;;5051270;28;20048;-81
2023/04/14 12:59:18;;;;;;;4.88;2.08;;;;;;;;;;5052318;28;20043;-81
2023/04/14 13:01:44;;;;;;;7.07;2.15;;;;;;;;;;5051854;28;20485;-82
2023/04/14 13:04:11;;;;;;;5.43;1.77;;;;;;;;;;5052481;28;20481;-81
2023/04/14 13:06:37;;;;;;;10.32;2.03;;;;;;;;;;5052415;28;20045;-81
2023/04/14 13:09:03;;;;;;;7.25;2.03;;;;;;;;;;5050625;28;20067;-81
2023/04/14 13:11:30;;;;;;;6.03;1.90;;;;;;;;;;5051401;28;20131;-81
2023/04/14 13:13:56;;;;;;;5.95;1.80;;;;;;;;;;5052038;28;20083;-81
2023/04/14 13:16:22;;;;;;;5.07;1.90;;;;;;;;;;5052416;28;20493;-81
2023/04/14 13:18:48;;;;;;;7.07;1.75;;;;;;;;;;5050658;28;20048;-81
2023/04/14 13:21:15;;;;;;;6.22;2.10;;;;;;;;;;5052057;28;20131;-81
2023/04/14 13:23:41;;;;;;;6.55;1.98;;;;;;;;;;5051779;28;20045;-81
2023/04/14 13:26:07;;;;;;;8.02;1.65;;;;;;;;;;5050502;28;20056;-81
2023/04/14 13:28:33;;;;;;;7.43;1.60;;;;;;;;;;5052102;28;20102;-81
2023/04/14 13:30:59;;;;;;;5.53;1.90;;;;;;;;;;5051891;28;20044;-81
2023/04/14 13:33:26;;;;;;;6.35;2.58;;;;;;;;;;5050949;28;20094;-81
2023/04/14 13:35:54;;;;;;;5.18;1.90;;;;;;;;;;5050982;28;20044;-81
2023/04/14 13:38:20;;;;;;;6.40;2.22;;;;;;;;;;5050358;28;20044;-81
2023/04/14 13:40:46;;;;;;;5.15;2.25;;;;;;;;;;5051018;28;20037;-81
2023/04/14 13:43:15;;;;;;;5.03;1.50;;;;;;;;;;5050376;28;20052;-81
2023/04/14 13:45:41;;;;;;;5.03;1.65;;;;;;;;;;5051042;28;20041;-82
2023/04/14 13:48:07;;;;;;;5.43;1.67;;;;;;;;;;5050420;28;20112;-81
2023/04/14 13:50:33;;;;;;;6.72;1.67;;;;;;;;;;5050847;28;20072;-81
2023/04/14 13:52:59;;;;;;;7.00;1.83;;;;;;;;;;5051361;28;20059;-81
2023/04/14 13:55:25;;;;;;;5.88;1.70;;;;;;;;;;5050644;28;20049;-81
2023/04/14 13:57:51;;;;;;;9.23;2.15;;;;;;;;;;5051289;28;20425;-82
2023/04/14 14:00:17;;;;;;;5.18;1.88;;;;;;;;;;5034252;28;20457;-81
2023/04/14 14:02:43;;;;;;;7.97;1.95;;;;;;;;;;5050124;28;20094;-81
2023/04/14 14:05:10;;;;;;;5.47;1.60;;;;;;;;;;5050110;28;20124;-81
2023/04/14 14:07:37;;;;;;;9.30;2.47;;;;;;;;;;5051581;28;20041;-81
2023/04/14 14:10:03;;;;;;;5.57;1.70;;;;;;;;;;5050233;28;20048;-81
2023/04/14 14:12:31;;;;;;;9.40;1.83;;;;;;;;;;5050539;28;20080;-81
2023/04/14 14:14:57;;;;;;;3.78;1.55;;;;;;;;;;5050126;28;20398;-81
2023/04/14 14:17:23;;;;;;;6.32;1.70;;;;;;;;;;5067425;28;20528;-80
2023/04/14 14:19:49;;;;;;;5.18;2.03;;;;;;;;;;5067110;28;20044;-82
2023/04/14 14:22:15;;;;;;;6.88;1.67;;;;;;;;;;5051213;28;20409;-81
2023/04/14 14:24:41;;;;;;;5.80;1.70;;;;;;;;;;5051582;28;20096;-81
2023/04/14 14:27:08;;;;;;;6.68;1.83;;;;;;;;;;5033208;28;20041;-81
2023/04/14 14:29:34;;;;;;;7.47;1.45;;;;;;;;;;5051538;28;20049;-81
2023/04/14 14:32:00;;;;;;;4.00;1.50;;;;;;;;;;5049794;28;20044;-81
2023/04/14 14:34:26;;;;;;;6.07;1.58;;;;;;;;;;5050352;28;20116;-81
2023/04/14 14:36:53;;;;;;;5.05;1.50;;;;;;;;;;5053149;28;20044;-81
2023/04/14 14:39:19;;;;;;;7.50;1.92;;;;;;;;;;5053081;28;20041;-81
2023/04/14 14:41:45;;;;;;;3.75;1.20;;;;;;;;;;5054258;28;20477;-81